createdAt,value
2019-01-13T00:00:01.070Z,25.83
2019-01-13T00:02:29.915Z,23.17
2019-01-13T00:04:58.055Z,17.30
2019-01-13T00:07:26.717Z,20.63
2019-01-13T00:09:55.079Z,18.47
2019-01-13T00:12:23.219Z,19.10
2019-01-13T00:14:51.359Z,24.03
2019-01-13T00:17:19.531Z,21.83
2019-01-13T00:19:47.679Z,22.10
2019-01-13T00:22:15.825Z,17.40
2019-01-13T00:24:43.995Z,21.73
2019-01-13T00:27:12.136Z,19.10
2019-01-13T00:29:40.272Z,23.93
2019-01-13T00:32:08.440Z,22.37
2019-01-13T00:34:36.593Z,29.20
2019-01-13T00:37:04.732Z,27.23
2019-01-13T00:39:32.905Z,30.43
2019-01-13T00:42:01.040Z,27.30
2019-01-13T00:44:29.177Z,22.37
2019-01-13T00:46:57.344Z,28.77
2019-01-13T00:49:25.491Z,25.87
2019-01-13T00:51:53.629Z,21.07
2019-01-13T00:54:21.800Z,25.30
2019-01-13T00:56:50.047Z,27.53
2019-01-13T00:59:18.200Z,27.73
2019-01-13T01:01:46.644Z,32.53
2019-01-13T01:04:14.779Z,26.80
2019-01-13T01:06:42.916Z,24.97
2019-01-13T01:09:11.079Z,28.97
2019-01-13T01:11:39.219Z,24.67
2019-01-13T01:14:07.364Z,29.70
2019-01-13T01:16:35.524Z,26.10
2019-01-13T01:19:03.675Z,24.27
2019-01-13T01:21:31.812Z,30.07
2019-01-13T01:24:00.046Z,36.90
2019-01-13T01:26:28.192Z,32.10
2019-01-13T01:28:56.332Z,27.80
2019-01-13T01:31:24.502Z,35.47
2019-01-13T01:33:52.637Z,31.97
2019-01-13T01:36:20.767Z,30.10
2019-01-13T01:38:48.933Z,25.20
2019-01-13T01:41:17.070Z,32.47
2019-01-13T01:43:45.203Z,30.33
2019-01-13T01:46:13.367Z,30.57
2019-01-13T01:48:41.435Z,30.10
2019-01-13T01:51:09.582Z,29.73
2019-01-13T01:53:37.748Z,29.60
2019-01-13T01:56:05.879Z,28.30
2019-01-13T01:58:34.015Z,29.67
2019-01-13T02:01:02.180Z,25.63
2019-01-13T02:03:30.325Z,24.93
2019-01-13T02:05:58.455Z,27.33
2019-01-13T02:08:26.640Z,25.27
2019-01-13T02:10:54.755Z,31.60
2019-01-13T02:13:22.892Z,30.83
2019-01-13T02:15:51.057Z,38.53
2019-01-13T02:18:19.192Z,31.40
2019-01-13T02:20:47.323Z,37.30
2019-01-13T02:23:15.505Z,33.37
2019-01-13T02:25:43.653Z,35.00
2019-01-13T02:28:11.790Z,30.50
2019-01-13T02:30:39.970Z,26.27
2019-01-13T02:33:08.131Z,29.23
2019-01-13T02:35:36.271Z,27.97
2019-01-13T02:38:04.460Z,28.23
2019-01-13T02:40:32.592Z,32.27
2019-01-13T02:43:00.726Z,31.20
2019-01-13T02:45:28.985Z,29.50
2019-01-13T02:47:57.146Z,21.93
2019-01-13T02:50:25.287Z,25.20
2019-01-13T02:52:53.460Z,25.23
2019-01-13T02:55:21.591Z,23.93
2019-01-13T02:57:49.723Z,22.33
2019-01-13T03:00:19.263Z,23.40
2019-01-13T03:02:47.403Z,28.67
2019-01-13T03:05:15.542Z,27.17
2019-01-13T03:07:43.711Z,26.73
2019-01-13T03:10:13.482Z,25.83
2019-01-13T03:12:41.619Z,27.33
2019-01-13T03:15:10.748Z,25.77
2019-01-13T03:17:38.893Z,23.70
2019-01-13T03:20:08.705Z,25.67
2019-01-13T03:22:36.867Z,17.33
2019-01-13T03:25:06.640Z,19.50
2019-01-13T03:27:34.777Z,19.20
2019-01-13T03:30:04.423Z,17.40
2019-01-13T03:32:32.598Z,22.70
2019-01-13T03:35:00.710Z,21.60
2019-01-13T03:37:28.879Z,28.67
2019-01-13T03:39:57.016Z,24.87
2019-01-13T03:42:25.152Z,25.93
2019-01-13T03:44:53.319Z,29.13
2019-01-13T03:47:21.495Z,28.40
2019-01-13T03:49:49.639Z,28.87
2019-01-13T03:52:19.855Z,26.87
2019-01-13T03:54:48.010Z,36.27
2019-01-13T03:57:16.137Z,34.23
2019-01-13T03:59:44.302Z,31.10
2019-01-13T04:02:12.443Z,34.83
2019-01-13T04:04:40.575Z,37.37
2019-01-13T04:07:08.754Z,42.47
2019-01-13T04:09:36.895Z,38.43
2019-01-13T04:12:05.025Z,35.47
2019-01-13T04:14:33.208Z,32.43
2019-01-13T04:17:01.353Z,38.67
2019-01-13T04:19:29.522Z,32.23
2019-01-13T04:21:57.695Z,27.57
2019-01-13T04:24:25.828Z,30.40
2019-01-13T04:26:53.971Z,31.23
2019-01-13T04:29:22.127Z,37.53
2019-01-13T04:31:50.347Z,45.33
2019-01-13T04:34:18.495Z,35.57
2019-01-13T04:36:46.653Z,48.50
2019-01-13T04:39:14.783Z,53.83
2019-01-13T04:41:42.912Z,38.10
2019-01-13T04:44:11.076Z,40.87
2019-01-13T04:46:39.215Z,44.07
2019-01-13T04:49:07.362Z,40.73
2019-01-13T04:51:35.519Z,41.93
2019-01-13T04:54:03.702Z,36.90
2019-01-13T04:56:31.839Z,41.93
2019-01-13T04:59:00.002Z,34.57
2019-01-13T05:01:34.451Z,41.73
2019-01-13T05:03:57.919Z,35.83
2019-01-13T05:06:26.092Z,38.53
2019-01-13T05:08:54.236Z,41.33
2019-01-13T05:11:22.372Z,42.27
2019-01-13T05:13:50.530Z,33.37
2019-01-13T05:16:18.672Z,38.93
2019-01-13T05:18:46.800Z,47.17
2019-01-13T05:21:14.987Z,45.57
2019-01-13T05:23:43.112Z,32.80
2019-01-13T05:26:11.247Z,36.47
2019-01-13T05:28:39.403Z,36.53
2019-01-13T05:31:07.536Z,36.47
2019-01-13T05:33:35.671Z,39.37
2019-01-13T05:36:03.843Z,33.70
2019-01-13T05:38:31.991Z,31.70
2019-01-13T05:41:00.124Z,39.53
2019-01-13T05:43:28.287Z,34.23
2019-01-13T05:45:56.424Z,19.67
2019-01-13T05:48:24.559Z,28.57
2019-01-13T05:50:52.661Z,35.17
2019-01-13T05:53:20.834Z,34.40
2019-01-13T05:55:48.938Z,39.23
2019-01-13T05:58:17.101Z,39.03
2019-01-13T06:00:45.311Z,32.17
2019-01-13T06:03:13.451Z,36.23
2019-01-13T06:05:41.626Z,35.67
2019-01-13T06:08:09.747Z,28.03
2019-01-13T06:10:38.011Z,33.13
2019-01-13T06:13:06.180Z,34.87
2019-01-13T06:15:34.312Z,29.07
2019-01-13T06:18:02.448Z,24.97
2019-01-13T06:20:30.621Z,30.97
2019-01-13T06:22:58.747Z,33.13
2019-01-13T06:25:26.886Z,37.53
2019-01-13T06:27:55.062Z,23.23
2019-01-13T06:30:23.202Z,26.10
2019-01-13T06:32:51.336Z,29.87
2019-01-13T06:35:19.508Z,30.93
2019-01-13T06:37:47.639Z,32.70
2019-01-13T06:40:16.648Z,28.60
2019-01-13T06:42:44.839Z,35.43
2019-01-13T06:45:17.510Z,28.50
2019-01-13T06:47:45.787Z,25.17
2019-01-13T06:50:14.535Z,24.27
2019-01-13T06:52:42.677Z,21.00
2019-01-13T06:55:10.884Z,26.73
2019-01-13T06:57:39.065Z,24.23
2019-01-13T07:00:08.843Z,27.43
2019-01-13T07:02:36.987Z,22.73
2019-01-13T07:05:05.723Z,20.17
2019-01-13T07:07:33.868Z,32.20
2019-01-13T07:10:02.007Z,25.43
2019-01-13T07:12:30.179Z,25.33
2019-01-13T07:14:58.322Z,21.17
2019-01-13T07:17:26.453Z,28.37
2019-01-13T07:19:54.616Z,36.63
2019-01-13T07:22:22.755Z,23.13
2019-01-13T07:24:50.900Z,26.20
2019-01-13T07:27:19.064Z,20.27
2019-01-13T07:29:47.283Z,29.57
2019-01-13T07:32:15.419Z,33.53
2019-01-13T07:34:43.588Z,17.83
2019-01-13T07:37:11.713Z,20.07
2019-01-13T07:39:39.861Z,25.30
2019-01-13T07:42:08.003Z,27.10
2019-01-13T07:44:36.143Z,26.30
2019-01-13T07:47:04.275Z,19.53
2019-01-13T07:49:32.451Z,20.77
2019-01-13T07:52:00.584Z,23.67
2019-01-13T07:54:28.723Z,19.43
2019-01-13T07:56:56.877Z,22.07
2019-01-13T07:59:25.015Z,18.90
2019-01-13T08:01:53.143Z,22.10
2019-01-13T08:04:21.315Z,18.07
2019-01-13T08:06:51.700Z,23.93
2019-01-13T08:09:21.776Z,26.97
2019-01-13T08:11:49.931Z,24.53
2019-01-13T08:14:18.371Z,26.10
2019-01-13T08:16:48.172Z,18.13
2019-01-13T08:19:16.347Z,16.87
2019-01-13T08:21:44.487Z,19.80
2019-01-13T08:24:12.628Z,27.13
2019-01-13T08:26:41.567Z,22.60
2019-01-13T08:29:09.703Z,18.37
2019-01-13T08:31:37.850Z,23.43
2019-01-13T08:34:06.008Z,26.53
2019-01-13T08:36:34.143Z,25.27
2019-01-13T08:39:02.347Z,16.33
2019-01-13T08:41:30.512Z,17.73
2019-01-13T08:43:58.644Z,22.87
2019-01-13T08:46:26.785Z,21.47
2019-01-13T08:48:54.950Z,27.80
2019-01-13T08:51:23.091Z,22.47
2019-01-13T08:53:51.238Z,22.73
2019-01-13T08:56:19.408Z,24.93
2019-01-13T08:58:47.552Z,18.43
2019-01-13T09:01:15.708Z,24.77
2019-01-13T09:03:43.863Z,21.10
2019-01-13T09:06:12.003Z,19.20
2019-01-13T09:08:40.153Z,22.47
2019-01-13T09:11:09.220Z,21.03
2019-01-13T09:13:37.355Z,21.30
2019-01-13T09:16:05.505Z,19.03
2019-01-13T09:18:33.719Z,27.90
2019-01-13T09:21:01.815Z,25.33
2019-01-13T09:23:29.953Z,17.90
2019-01-13T09:25:58.241Z,19.17
2019-01-13T09:28:26.376Z,15.47
2019-01-13T09:30:54.539Z,18.00
2019-01-13T09:33:22.836Z,19.10
2019-01-13T09:35:51.013Z,19.57
2019-01-13T09:38:19.194Z,22.07
2019-01-13T09:40:47.373Z,21.03
2019-01-13T09:43:15.572Z,18.10
2019-01-13T09:45:43.712Z,20.83
2019-01-13T09:48:11.882Z,20.20
2019-01-13T09:50:40.021Z,28.80
2019-01-13T09:53:08.159Z,17.13
2019-01-13T09:55:36.330Z,19.27
2019-01-13T09:58:04.529Z,18.17
2019-01-13T10:00:33.545Z,21.33
2019-01-13T10:03:01.711Z,19.17
2019-01-13T10:05:29.885Z,19.17
2019-01-13T10:07:58.023Z,20.97
2019-01-13T10:10:26.191Z,23.30
2019-01-13T10:12:54.319Z,20.03
2019-01-13T10:15:23.540Z,25.17
2019-01-13T10:17:51.713Z,21.73
2019-01-13T10:20:19.849Z,24.90
2019-01-13T10:22:47.983Z,19.23
2019-01-13T10:25:16.160Z,22.97
2019-01-13T10:27:44.288Z,18.40
2019-01-13T10:30:17.096Z,21.13
2019-01-13T10:32:46.665Z,20.53
2019-01-13T10:35:14.900Z,25.93
2019-01-13T10:37:43.041Z,18.80
2019-01-13T10:40:12.828Z,23.73
2019-01-13T10:42:40.971Z,18.23
2019-01-13T10:45:10.471Z,18.90
2019-01-13T10:47:38.625Z,23.93
2019-01-13T10:50:08.396Z,20.17
2019-01-13T10:52:36.536Z,23.37
2019-01-13T10:55:06.000Z,24.63
2019-01-13T10:57:34.152Z,21.77
2019-01-13T11:00:02.360Z,20.10
2019-01-13T11:02:30.531Z,22.60
2019-01-13T11:04:58.663Z,22.03
2019-01-13T11:07:26.801Z,19.60
2019-01-13T11:09:54.962Z,19.87
2019-01-13T11:12:23.127Z,20.37
2019-01-13T11:14:51.256Z,18.77
2019-01-13T11:17:19.465Z,23.22
2019-01-13T11:19:47.618Z,21.33
2019-01-13T11:22:15.751Z,17.33
2019-01-13T11:24:43.915Z,18.67
2019-01-13T11:27:12.065Z,23.77
2019-01-13T11:29:40.206Z,28.20
2019-01-13T11:32:08.379Z,18.60
2019-01-13T11:34:36.515Z,24.43
2019-01-13T11:37:06.826Z,14.00
2019-01-13T11:39:35.623Z,22.07
2019-01-13T11:42:06.873Z,17.87
2019-01-13T11:44:35.013Z,17.57
2019-01-13T11:47:05.764Z,21.17
2019-01-13T11:49:35.252Z,20.50
2019-01-13T11:52:04.558Z,20.83
2019-01-13T11:54:33.042Z,21.60
2019-01-13T11:57:01.182Z,14.83
2019-01-13T11:59:29.319Z,18.87
2019-01-13T12:01:57.495Z,17.50
2019-01-13T12:04:25.907Z,14.83
2019-01-13T12:07:04.560Z,29.33
2019-01-13T12:09:34.283Z,18.07
2019-01-13T12:12:02.421Z,13.97
2019-01-13T12:14:31.336Z,19.27
2019-01-13T12:17:02.752Z,20.10
2019-01-13T12:19:31.796Z,16.37
2019-01-13T12:22:09.888Z,20.50
2019-01-13T12:24:38.532Z,17.87
2019-01-13T12:27:06.675Z,16.37
2019-01-13T12:29:34.935Z,16.67
2019-01-13T12:32:04.995Z,14.27
2019-01-13T12:34:36.424Z,25.40
2019-01-13T12:37:04.658Z,17.60
2019-01-13T12:39:33.867Z,16.07
2019-01-13T12:42:04.989Z,19.57
2019-01-13T12:44:36.521Z,23.47
2019-01-13T12:47:04.654Z,16.43
2019-01-13T12:49:32.789Z,19.37
2019-01-13T12:52:00.993Z,15.37
2019-01-13T12:54:29.151Z,14.27
2019-01-13T12:56:57.299Z,15.17
2019-01-13T12:59:25.441Z,19.23
2019-01-13T13:01:53.609Z,21.67
2019-01-13T13:04:21.754Z,20.23
2019-01-13T13:06:49.903Z,19.90
2019-01-13T13:09:18.079Z,17.43
2019-01-13T13:11:46.272Z,21.87
2019-01-13T13:14:14.348Z,16.70
2019-01-13T13:16:42.511Z,16.10
2019-01-13T13:19:10.653Z,19.40
2019-01-13T13:21:38.823Z,22.03
2019-01-13T13:24:06.983Z,16.20
2019-01-13T13:26:35.127Z,20.53
2019-01-13T13:29:03.315Z,18.70
2019-01-13T13:31:31.487Z,15.67
2019-01-13T13:33:59.654Z,26.40
2019-01-13T13:36:27.800Z,18.30
2019-01-13T13:38:55.956Z,25.30
2019-01-13T13:41:24.119Z,25.63
2019-01-13T13:43:52.256Z,19.90
2019-01-13T13:46:20.432Z,17.43
2019-01-13T13:48:48.563Z,24.40
2019-01-13T13:51:16.697Z,20.87
2019-01-13T13:53:44.888Z,23.18
2019-01-13T13:56:13.026Z,29.77
2019-01-13T13:58:43.327Z,22.90
2019-01-13T14:01:11.491Z,24.37
2019-01-13T14:03:45.558Z,15.63
2019-01-13T14:06:09.427Z,28.40
2019-01-13T14:08:37.597Z,23.97
2019-01-13T14:11:05.740Z,20.57
2019-01-13T14:13:33.863Z,21.67
2019-01-13T14:16:02.251Z,16.77
2019-01-13T14:18:30.403Z,21.03
2019-01-13T14:21:00.923Z,18.43
2019-01-13T14:23:29.499Z,20.43
2019-01-13T14:25:57.639Z,17.37
2019-01-13T14:28:25.775Z,22.37
2019-01-13T14:30:53.955Z,16.43
2019-01-13T14:33:22.091Z,23.43
2019-01-13T14:35:50.232Z,24.47
2019-01-13T14:38:18.472Z,21.23
2019-01-13T14:40:46.610Z,24.60
2019-01-13T14:43:14.761Z,20.30
2019-01-13T14:45:42.921Z,19.70
2019-01-13T14:48:11.203Z,20.90
2019-01-13T14:50:39.838Z,19.63
2019-01-13T14:53:08.179Z,21.43
2019-01-13T14:55:36.879Z,24.63
2019-01-13T14:58:05.015Z,19.70
2019-01-13T15:00:33.179Z,30.80
2019-01-13T15:03:01.327Z,28.23
2019-01-13T15:05:29.462Z,19.97
2019-01-13T15:07:57.624Z,24.37
2019-01-13T15:10:25.763Z,16.07
2019-01-13T15:12:54.468Z,21.83
2019-01-13T15:15:23.463Z,20.17
2019-01-13T15:17:51.599Z,11.67
2019-01-13T15:20:20.531Z,14.87
2019-01-13T15:22:48.871Z,19.50
2019-01-13T15:25:26.878Z,26.93
2019-01-13T15:27:50.746Z,17.67
2019-01-13T15:30:20.248Z,17.50
2019-01-13T15:32:48.479Z,18.80
2019-01-13T15:35:16.624Z,12.13
2019-01-13T15:37:44.829Z,17.50
2019-01-13T15:40:14.026Z,34.83
2019-01-13T15:42:42.171Z,24.63
2019-01-13T15:45:11.484Z,23.17
2019-01-13T15:47:39.627Z,13.67
2019-01-13T15:50:09.633Z,17.63
2019-01-13T15:52:39.202Z,26.00
2019-01-13T15:55:07.331Z,25.03
2019-01-13T15:57:47.095Z,19.17
2019-01-13T16:00:16.926Z,17.03
2019-01-13T16:02:46.368Z,20.63
2019-01-13T16:05:14.491Z,22.20
2019-01-13T16:07:45.340Z,21.63
2019-01-13T16:10:14.953Z,23.37
2019-01-13T16:12:45.396Z,28.53
2019-01-13T16:15:17.857Z,19.33
2019-01-13T16:17:48.487Z,20.27
2019-01-13T16:20:18.255Z,23.50
2019-01-13T16:22:47.628Z,19.27
2019-01-13T16:25:15.755Z,19.13
2019-01-13T16:27:44.190Z,20.80
2019-01-13T16:30:24.870Z,18.20
2019-01-13T16:32:55.252Z,19.00
2019-01-13T16:35:23.385Z,19.47
2019-01-13T16:37:54.275Z,17.53
2019-01-13T16:40:23.296Z,24.57
2019-01-13T16:43:00.824Z,29.23
2019-01-13T16:45:28.678Z,18.10
2019-01-13T16:47:58.480Z,19.50
2019-01-13T16:50:26.646Z,16.47
2019-01-13T16:52:58.527Z,19.93
2019-01-13T16:55:29.246Z,17.70
2019-01-13T16:57:59.101Z,22.17
2019-01-13T17:00:29.521Z,20.10
2019-01-13T17:02:59.303Z,18.33
2019-01-13T17:05:29.906Z,17.20
2019-01-13T17:08:03.782Z,19.03
2019-01-13T17:10:36.740Z,21.20
2019-01-13T17:13:07.419Z,15.73
2019-01-13T17:15:36.242Z,21.90
2019-01-13T17:18:08.608Z,14.93
2019-01-13T17:20:39.797Z,19.03
2019-01-13T17:23:10.539Z,22.20
2019-01-13T17:25:42.644Z,22.77
2019-01-13T17:28:19.387Z,32.73
2019-01-13T17:30:46.975Z,58.40
2019-01-13T17:33:15.699Z,27.47
2019-01-13T17:35:49.336Z,27.50
2019-01-13T17:38:20.943Z,16.33
2019-01-13T17:40:51.815Z,23.40
2019-01-13T17:43:26.251Z,29.43
2019-01-13T17:45:55.667Z,22.83
2019-01-13T17:48:27.312Z,22.57
2019-01-13T17:50:55.448Z,28.83
2019-01-13T17:53:25.274Z,23.70
2019-01-13T17:56:06.784Z,19.43
2019-01-13T17:58:36.623Z,24.53
2019-01-13T18:01:08.428Z,24.63
2019-01-13T18:03:38.869Z,24.23
2019-01-13T18:09:04.338Z,23.57
2019-01-13T18:11:32.899Z,22.40
2019-01-13T18:14:01.041Z,19.50
2019-01-13T18:16:29.211Z,21.47
2019-01-13T18:18:57.886Z,21.13
2019-01-13T18:21:25.972Z,20.07
2019-01-13T18:23:54.123Z,25.07
2019-01-13T18:26:22.310Z,35.93
2019-01-13T18:28:50.479Z,34.50
2019-01-13T18:31:18.624Z,40.33
2019-01-13T18:33:46.783Z,43.57
2019-01-13T18:36:15.287Z,20.80
2019-01-13T18:38:43.547Z,43.87
2019-01-13T18:41:11.717Z,32.57
2019-01-13T18:43:39.849Z,26.33
2019-01-13T18:46:07.987Z,27.77
2019-01-13T18:48:36.167Z,29.40
2019-01-13T18:51:04.406Z,26.17
2019-01-13T18:53:32.722Z,28.93
2019-01-13T18:56:00.897Z,24.83
2019-01-13T18:58:29.061Z,20.63
2019-01-13T19:00:57.207Z,27.70
2019-01-13T19:03:25.398Z,25.33
2019-01-13T19:05:53.804Z,21.17
2019-01-13T19:08:21.936Z,23.17
2019-01-13T19:10:54.743Z,23.70
2019-01-13T19:13:27.266Z,25.57
2019-01-13T19:15:56.762Z,20.80
2019-01-13T19:18:24.933Z,23.43
2019-01-13T19:20:53.142Z,25.70
2019-01-13T19:23:21.854Z,27.83
2019-01-13T19:25:50.015Z,28.83
2019-01-13T19:28:18.158Z,29.90
2019-01-13T19:30:46.305Z,16.93
2019-01-13T19:33:14.475Z,18.70
2019-01-13T19:35:42.730Z,22.17
2019-01-13T19:38:10.883Z,17.30
2019-01-13T19:40:39.083Z,28.87
2019-01-13T19:43:07.224Z,21.57
2019-01-13T19:45:35.360Z,25.30
2019-01-13T19:48:03.537Z,34.17
2019-01-13T19:50:31.685Z,30.90
2019-01-13T19:53:00.571Z,29.13
2019-01-13T19:55:28.803Z,28.93
2019-01-13T19:57:56.931Z,25.90
2019-01-13T20:00:26.748Z,28.73
2019-01-13T20:02:54.935Z,27.50
2019-01-13T20:05:23.121Z,32.83
2019-01-13T20:07:51.274Z,26.50
2019-01-13T20:10:19.546Z,29.70
2019-01-13T20:12:47.639Z,28.00
2019-01-13T20:15:17.251Z,33.47
2019-01-13T20:17:47.945Z,30.40
2019-01-13T20:20:17.705Z,33.33
2019-01-13T20:22:45.867Z,29.43
2019-01-13T20:25:14.767Z,26.73
2019-01-13T20:27:42.924Z,29.03
2019-01-13T20:30:21.666Z,30.60
2019-01-13T20:32:49.884Z,28.43
2019-01-13T20:35:19.321Z,34.10
2019-01-13T20:37:47.704Z,35.53
2019-01-13T20:40:16.731Z,27.47
2019-01-13T20:42:44.876Z,36.73
2019-01-13T20:45:14.851Z,23.93
2019-01-13T20:47:42.975Z,35.73
2019-01-13T20:50:12.596Z,28.40
2019-01-13T20:52:40.755Z,33.10
2019-01-13T20:55:10.372Z,33.03
2019-01-13T20:57:38.502Z,25.93
2019-01-13T21:00:08.377Z,28.13
2019-01-13T21:02:37.784Z,32.40
2019-01-13T21:05:07.088Z,27.33
2019-01-13T21:07:35.384Z,30.17
2019-01-13T21:10:04.605Z,26.77
2019-01-13T21:12:32.727Z,34.23
2019-01-13T21:15:00.893Z,30.03
2019-01-13T21:17:29.165Z,29.77
2019-01-13T21:19:57.312Z,28.03
2019-01-13T21:22:25.490Z,35.57
2019-01-13T21:24:53.632Z,32.53
2019-01-13T21:27:21.819Z,29.13
2019-01-13T21:29:50.031Z,26.33
2019-01-13T21:32:18.284Z,29.00
2019-01-13T21:34:46.415Z,31.23
2019-01-13T21:37:14.578Z,38.77
2019-01-13T21:39:42.718Z,26.40
2019-01-13T21:42:10.855Z,29.17
2019-01-13T21:44:39.027Z,36.10
2019-01-13T21:47:07.169Z,33.63
2019-01-13T21:49:35.299Z,32.07
2019-01-13T21:52:03.530Z,34.80
2019-01-13T21:54:31.669Z,29.90
2019-01-13T21:56:59.828Z,30.57
2019-01-13T21:59:28.007Z,24.57
2019-01-13T22:01:56.140Z,24.60
2019-01-13T22:04:24.275Z,29.03
2019-01-13T22:06:52.453Z,23.50
2019-01-13T22:09:20.598Z,27.47
2019-01-13T22:11:48.736Z,27.20
2019-01-13T22:14:16.903Z,27.20
2019-01-13T22:16:45.036Z,22.87
2019-01-13T22:19:13.180Z,30.17
2019-01-13T22:21:41.422Z,26.37
2019-01-13T22:24:09.552Z,23.73
2019-01-13T22:26:37.717Z,29.10
2019-01-13T22:29:05.891Z,33.27
2019-01-13T22:31:34.096Z,28.67
2019-01-13T22:34:02.232Z,26.63
2019-01-13T22:36:30.403Z,33.53
2019-01-13T22:38:58.543Z,23.37
2019-01-13T22:41:26.745Z,28.43
2019-01-13T22:43:55.284Z,24.83
2019-01-13T22:46:23.417Z,26.10
2019-01-13T22:48:51.553Z,26.83
2019-01-13T22:51:19.720Z,19.77
2019-01-13T22:53:47.861Z,24.60
2019-01-13T22:56:15.999Z,25.03
2019-01-13T22:58:44.164Z,23.83
2019-01-13T23:01:15.583Z,29.33
2019-01-13T23:03:43.712Z,27.83
2019-01-13T23:06:11.890Z,33.53
2019-01-13T23:08:40.028Z,25.90
2019-01-13T23:11:08.161Z,28.83
2019-01-13T23:13:36.332Z,19.77
2019-01-13T23:16:04.524Z,22.27
2019-01-13T23:18:32.650Z,24.53
2019-01-13T23:21:00.813Z,23.87
2019-01-13T23:23:31.014Z,23.70
2019-01-13T23:25:59.155Z,20.43
2019-01-13T23:28:27.331Z,22.63
2019-01-13T23:30:55.594Z,28.63
2019-01-13T23:33:23.722Z,23.30
2019-01-13T23:35:51.917Z,22.63
2019-01-13T23:38:20.046Z,27.07
2019-01-13T23:40:48.195Z,21.07
2019-01-13T23:43:16.407Z,24.00
2019-01-13T23:45:44.682Z,25.83
2019-01-13T23:48:12.886Z,30.43
2019-01-13T23:50:41.068Z,29.37
2019-01-13T23:53:10.850Z,26.97
2019-01-13T23:55:39.051Z,38.17
2019-01-13T23:58:08.850Z,31.43
